LYBE/BEG METAR and TAF weather

Enter ICAO airport designator
Station Type Date Time Source
LYBE METAR 2019/10/22 16:00 UTC NOAA

LYBE 221600Z 08005KT 8000 NSC 24/10 Q1022 NOSIG


Station Type Date Time Source
LYBE Decoded METAR 2019/10/22 16:00 UTC NOAA

Beograd / Surcin, Serbia and Montenegro (LYBE) 44-49N 020-17E 99M
Oct 22, 2019 - 12:00 PM EDT / 2019.10.22 1600 UTC
Wind: from the E (080 degrees) at 6 MPH (5 KT):0
Visibility: 4 mile(s):0
Temperature: 75 F (24 C)
Dew Point: 50 F (10 C)
Relative Humidity: 41%
Pressure (altimeter): 30.18 in. Hg (1022 hPa)
ob: LYBE 221600Z 08005KT 8000 NSC 24/10 Q1022 NOSIG
cycle: 16

Station Type Date Time Source
LYBE TAF 2019/10/22 12:21 UTC NOAA

TAF LYBE 221100Z 2212/2312 04006KT CAVOK TX27/2213Z TN10/2305Z
TEMPO 2304/2306 3000 BR

Example: see airport list